Time;durP1;ratioP1;P1;durP2;ratioP2;P2;SDS_P1;SDS_P2;PMS_P1;PMS_P2;Temp;Humidity;BMP_temperature;BMP_pressure;BME280_temperature;BME280_humidity;BME280_pressure;Samples;Min_cycle;Max_cycle;Signal;HPM_P1;HPM_P2
2022/09/03 00:01:43;;;;;;;3.57;2.33;;;14.80;1.00;;;;;;6257687;28;20287;-53
2022/09/03 00:04:56;;;;;;;2.63;2.53;;;14.80;1.00;;;;;;6260232;28;20234;-55
2022/09/03 00:08:05;;;;;;;2.37;2.27;;;14.80;1.00;;;;;;6255364;28;20315;-54
2022/09/03 00:11:17;;;;;;;2.60;2.60;;;14.80;1.00;;;;;;6259810;28;20375;-54
2022/09/03 00:14:24;;;;;;;2.30;2.20;;;14.80;1.00;;;;;;6259810;28;20463;-54
2022/09/03 00:17:32;;;;;;;2.50;2.40;;;14.80;1.00;;;;;;6258036;28;20238;-54
2022/09/03 00:20:41;;;;;;;2.70;2.50;;;14.80;1.00;;;;;;6258101;28;20263;-54
2022/09/03 00:23:47;;;;;;;2.50;2.50;;;14.80;1.00;;;;;;6256124;28;20234;-55
2022/09/03 00:26:55;;;;;;;2.10;2.10;;;14.80;1.00;;;;;;6258880;28;20252;-55
2022/09/03 00:30:03;;;;;;;4.10;2.33;;;14.70;1.00;;;;;;6255287;28;20742;-55
2022/09/03 00:33:11;;;;;;;2.60;2.37;;;14.70;1.00;;;;;;6251786;28;20601;-55
2022/09/03 00:36:18;;;;;;;2.30;2.20;;;14.60;1.00;;;;;;6245968;28;20368;-54
2022/09/03 00:39:24;;;;;;;2.30;2.20;;;14.50;1.00;;;;;;6256910;28;20299;-54
2022/09/03 00:42:43;;;;;;;4.40;3.50;;;14.50;1.00;;;;;;6248238;28;20553;-53
2022/09/03 00:45:56;;;;;;;2.73;2.53;;;14.40;1.00;;;;;;6255403;28;20304;-54
2022/09/03 00:49:17;;;;;;;2.50;2.30;;;14.40;1.00;;;;;;6251694;28;20669;-55
2022/09/03 00:52:34;;;;;;;3.83;2.43;;;14.40;1.00;;;;;;6252320;28;20491;-54
2022/09/03 00:55:46;;;;;;;2.60;2.50;;;14.30;1.00;;;;;;6251610;28;20236;-55
2022/09/03 00:59:07;;;;;;;2.83;2.50;;;14.30;1.00;;;;;;6258099;28;21810;-55
2022/09/03 01:02:18;;;;;;;2.83;2.20;;;14.20;1.00;;;;;;6256696;28;20333;-54
2022/09/03 01:05:34;;;;;;;2.50;2.40;;;14.20;1.00;;;;;;6251430;28;20257;-54
2022/09/03 01:08:59;;;;;;;2.27;2.27;;;14.10;1.00;;;;;;6252020;28;20222;-55
2022/09/03 01:12:13;;;;;;;5.07;2.23;;;14.20;1.00;;;;;;6252216;28;20562;-54
2022/09/03 01:15:26;;;;;;;3.70;2.40;;;14.10;1.00;;;;;;6249822;28;20229;-53
2022/09/03 01:18:36;;;;;;;3.00;2.40;;;14.10;1.00;;;;;;6250632;28;20411;-55
2022/09/03 01:22:02;;;;;;;2.80;2.50;;;14.10;1.00;;;;;;6255687;28;20380;-55
2022/09/03 01:25:16;;;;;;;2.20;2.20;;;14.10;1.00;;;;;;6255085;28;20986;-53
2022/09/03 01:28:33;;;;;;;2.33;2.33;;;14.10;1.00;;;;;;6234130;28;20233;-55
2022/09/03 01:31:45;;;;;;;2.57;2.10;;;14.00;1.00;;;;;;6255625;28;20622;-54
2022/09/03 01:34:55;;;;;;;3.40;2.73;;;14.00;1.00;;;;;;6256680;28;20341;-54
2022/09/03 01:38:11;;;;;;;2.97;2.70;;;14.00;1.00;;;;;;6254174;28;20269;-54
2022/09/03 01:45:11;;;;;;;2.30;2.20;;;14.00;1.00;;;;;;6228445;28;20235;-52
2022/09/03 01:48:32;;;;;;;2.43;2.43;;;13.90;1.00;;;;;;6217146;28;20234;-55
2022/09/03 01:51:35;;;;;;;2.27;2.20;;;13.90;1.00;;;;;;6243455;28;20244;-54
2022/09/03 01:54:59;;;;;;;2.93;2.10;;;13.90;1.00;;;;;;6251149;28;20226;-54
2022/09/03 01:58:09;;;;;;;2.40;2.30;;;13.90;1.00;;;;;;6255379;28;20291;-54
2022/09/03 02:01:21;;;;;;;2.17;2.17;;;13.90;1.00;;;;;;6254034;28;20291;-53
2022/09/03 02:04:27;;;;;;;2.60;2.50;;;13.90;1.00;;;;;;6252714;28;20235;-55
2022/09/03 02:07:34;;;;;;;2.40;2.30;;;13.80;1.00;;;;;;6255544;28;20547;-55
2022/09/03 02:10:41;;;;;;;2.73;2.57;;;13.80;1.00;;;;;;6253279;28;20283;-54
2022/09/03 02:13:50;;;;;;;3.20;2.30;;;13.80;1.00;;;;;;6227886;28;20848;-55
2022/09/03 02:16:57;;;;;;;2.30;2.20;;;13.80;1.00;;;;;;6262222;28;20539;-55
2022/09/03 02:20:06;;;;;;;3.07;2.23;;;13.70;1.00;;;;;;6279694;28;20229;-54
2022/09/03 02:23:09;;;;;;;4.03;2.70;;;13.70;1.00;;;;;;6279605;28;20229;-53
2022/09/03 02:26:16;;;;;;;2.50;2.30;;;13.70;1.00;;;;;;6278615;28;20316;-54
2022/09/03 02:29:21;;;;;;;2.60;2.50;;;13.70;1.00;;;;;;6279349;28;20360;-55
2022/09/03 02:32:25;;;;;;;2.97;2.40;;;13.60;1.00;;;;;;6285691;28;20249;-55
2022/09/03 02:35:28;;;;;;;2.27;2.27;;;13.60;1.00;;;;;;6277403;28;20251;-53
2022/09/03 02:38:31;;;;;;;2.40;2.30;;;13.60;1.00;;;;;;6283171;28;20298;-53
2022/09/03 02:41:35;;;;;;;2.63;2.53;;;13.60;1.00;;;;;;6269103;28;20660;-54
2022/09/03 02:44:44;;;;;;;2.50;2.50;;;13.60;1.00;;;;;;6268316;28;20320;-54
2022/09/03 02:47:56;;;;;;;2.80;2.70;;;13.60;1.00;;;;;;6279872;28;20702;-55
2022/09/03 02:51:00;;;;;;;3.03;2.87;;;13.60;1.00;;;;;;6272628;28;20384;-53
2022/09/03 02:54:15;;;;;;;2.67;2.60;;;13.60;1.00;;;;;;6278008;28;20396;-54
2022/09/03 02:57:22;;;;;;;2.70;2.60;;;13.60;1.00;;;;;;6272736;28;20238;-53
2022/09/03 03:00:29;;;;;;;2.90;2.70;;;13.60;1.00;;;;;;6273644;28;20253;-54
2022/09/03 03:03:33;;;;;;;2.30;2.20;;;13.50;1.00;;;;;;6278004;28;20294;-53
2022/09/03 03:06:36;;;;;;;2.50;2.50;;;13.40;1.00;;;;;;6277948;28;20233;-54
2022/09/03 03:09:39;;;;;;;3.17;2.90;;;13.40;1.00;;;;;;6274714;28;20225;-55
2022/09/03 03:12:42;;;;;;;2.80;2.70;;;13.30;1.00;;;;;;6278081;28;20230;-55
2022/09/03 03:15:46;;;;;;;2.80;2.67;;;13.30;1.00;;;;;;6278203;28;20313;-55
2022/09/03 03:18:51;;;;;;;5.00;2.67;;;13.20;1.00;;;;;;6269111;28;20831;-55
2022/09/03 03:21:58;;;;;;;2.60;2.40;;;13.20;1.00;;;;;;6278021;28;20522;-55
2022/09/03 03:25:01;;;;;;;2.83;2.53;;;13.20;1.00;;;;;;6279664;28;20320;-55
2022/09/03 03:28:05;;;;;;;2.87;2.73;;;13.20;1.00;;;;;;6278579;28;20289;-55
2022/09/03 03:31:08;;;;;;;2.93;2.70;;;13.10;1.00;;;;;;6282491;28;20237;-54
2022/09/03 03:34:13;;;;;;;2.80;2.70;;;13.10;1.00;;;;;;6268127;28;20232;-55
2022/09/03 03:37:15;;;;;;;2.90;2.70;;;13.10;1.00;;;;;;6278807;28;20580;-54
2022/09/03 03:40:19;;;;;;;3.00;2.80;;;13.10;1.00;;;;;;6276458;28;20313;-55
2022/09/03 03:43:21;;;;;;;2.87;2.70;;;13.10;1.00;;;;;;6282887;28;20324;-54
2022/09/03 03:46:28;;;;;;;3.07;2.97;;;13.10;1.00;;;;;;6251641;28;20282;-54
2022/09/03 03:49:45;;;;;;;2.87;2.70;;;13.10;1.00;;;;;;6275831;28;20329;-58
2022/09/03 03:52:48;;;;;;;3.40;3.10;;;13.00;1.00;;;;;;6240930;28;20320;-54
2022/09/03 03:55:55;;;;;;;3.00;2.90;;;13.00;1.00;;;;;;6283713;28;20233;-54
2022/09/03 03:58:59;;;;;;;2.97;2.80;;;13.00;1.00;;;;;;6272945;28;20366;-55
2022/09/03 04:02:02;;;;;;;2.70;2.60;;;13.00;1.00;;;;;;6280384;28;20248;-54
2022/09/03 04:05:07;;;;;;;2.80;2.70;;;13.00;1.00;;;;;;6279221;28;20328;-55
2022/09/03 04:08:12;;;;;;;2.73;2.70;;;13.10;1.00;;;;;;6269575;28;20521;-53
2022/09/03 04:11:17;;;;;;;3.43;3.33;;;13.10;1.00;;;;;;6278458;28;20324;-54
2022/09/03 04:14:20;;;;;;;2.87;2.87;;;13.10;1.00;;;;;;6287590;28;20234;-55
2022/09/03 04:17:25;;;;;;;3.30;3.10;;;13.10;1.00;;;;;;6286107;28;20238;-54
2022/09/03 04:20:29;;;;;;;2.90;2.80;;;13.20;1.00;;;;;;6281074;28;20236;-54
2022/09/03 04:23:34;;;;;;;3.23;3.13;;;13.20;1.00;;;;;;6288197;28;20773;-55
2022/09/03 04:26:37;;;;;;;3.47;3.27;;;13.20;1.00;;;;;;6281087;28;20393;-54
2022/09/03 04:29:40;;;;;;;3.03;2.93;;;13.10;1.00;;;;;;6278502;28;20737;-54
2022/09/03 04:32:54;;;;;;;3.17;2.97;;;13.20;1.00;;;;;;6284656;28;20278;-54
2022/09/03 04:36:17;;;;;;;3.33;3.23;;;13.10;1.00;;;;;;6287733;28;20322;-55
2022/09/03 04:39:20;;;;;;;3.50;3.40;;;13.10;1.00;;;;;;6279834;28;20544;-54
2022/09/03 04:42:23;;;;;;;3.53;3.33;;;13.10;1.00;;;;;;6281887;28;20250;-54
2022/09/03 04:45:27;;;;;;;3.57;3.40;;;13.20;1.00;;;;;;6281311;28;20237;-56
2022/09/03 04:48:31;;;;;;;2.90;2.70;;;13.10;1.00;;;;;;6283003;28;20249;-54
2022/09/03 04:51:37;;;;;;;3.30;3.10;;;13.10;1.00;;;;;;6281842;28;20777;-53
2022/09/03 04:54:41;;;;;;;3.00;2.90;;;13.10;1.00;;;;;;6275276;28;20676;-53
2022/09/03 04:57:44;;;;;;;3.27;3.17;;;13.10;1.00;;;;;;6275019;28;20382;-54
2022/09/03 05:00:46;;;;;;;4.30;2.90;;;13.10;1.00;;;;;;6276861;28;20252;-56
2022/09/03 05:03:51;;;;;;;3.57;3.47;;;13.10;1.00;;;;;;6276027;28;20620;-54
2022/09/03 05:06:55;;;;;;;3.63;3.33;;;13.10;1.00;;;;;;6270517;28;20329;-53
2022/09/03 05:09:58;;;;;;;3.30;3.00;;;13.10;1.00;;;;;;6284725;28;20849;-52
2022/09/03 05:13:02;;;;;;;3.03;2.83;;;13.10;1.00;;;;;;6278972;28;20712;-55
2022/09/03 05:16:07;;;;;;;3.40;3.10;;;13.10;1.00;;;;;;6275930;28;20392;-55
2022/09/03 05:19:11;;;;;;;6.03;3.40;;;13.20;1.00;;;;;;6275190;28;20752;-55
2022/09/03 05:22:20;;;;;;;3.00;2.80;;;13.10;1.00;;;;;;6279500;28;20374;-56
2022/09/03 05:25:23;;;;;;;3.43;3.20;;;13.10;1.00;;;;;;6282984;28;20229;-55
2022/09/03 05:28:27;;;;;;;5.00;3.50;;;13.20;1.00;;;;;;6278672;28;20345;-53
2022/09/03 05:31:31;;;;;;;5.83;3.30;;;13.20;1.00;;;;;;6277379;28;20233;-53
2022/09/03 05:34:34;;;;;;;3.40;3.30;;;13.20;1.00;;;;;;6270228;28;20233;-53
2022/09/03 05:37:38;;;;;;;3.50;3.40;;;13.30;1.00;;;;;;6276345;28;20334;-54
2022/09/03 05:40:42;;;;;;;3.37;3.17;;;13.30;1.00;;;;;;6275528;28;20237;-55
2022/09/03 05:43:45;;;;;;;3.50;3.30;;;13.40;1.00;;;;;;6277381;28;20669;-55
2022/09/03 05:46:48;;;;;;;3.20;3.00;;;13.40;1.00;;;;;;6277237;28;20341;-54
2022/09/03 05:49:57;;;;;;;3.93;3.73;;;13.40;1.00;;;;;;6275984;28;20286;-54
2022/09/03 05:53:01;;;;;;;3.23;3.13;;;13.40;1.00;;;;;;6264290;28;20265;-50
2022/09/03 05:56:09;;;;;;;3.00;3.00;;;13.40;1.00;;;;;;6274324;28;20802;-55
2022/09/03 05:59:12;;;;;;;3.73;3.23;;;13.50;1.00;;;;;;6281960;28;20499;-55
2022/09/03 06:02:16;;;;;;;4.80;3.10;;;13.50;1.00;;;;;;6281824;28;20241;-55
2022/09/03 06:05:21;;;;;;;4.23;3.63;;;13.60;1.00;;;;;;6274884;28;20281;-55
2022/09/03 06:08:26;;;;;;;3.57;3.27;;;13.70;1.00;;;;;;6274396;28;20240;-55
2022/09/03 06:11:30;;;;;;;3.70;3.40;;;13.80;1.00;;;;;;6276876;28;20784;-55
2022/09/03 06:14:34;;;;;;;3.33;3.17;;;13.90;1.00;;;;;;6279922;28;20326;-54
2022/09/03 06:17:38;;;;;;;3.37;3.27;;;14.10;1.00;;;;;;6274779;28;20243;-54
2022/09/03 06:20:40;;;;;;;2.80;2.70;;;14.50;1.00;;;;;;6280566;28;20233;-55
2022/09/03 06:23:49;;;;;;;3.07;2.93;;;14.60;1.00;;;;;;6274812;28;20602;-57
2022/09/03 06:26:52;;;;;;;3.27;2.97;;;14.70;1.00;;;;;;6279051;28;20333;-54
2022/09/03 06:29:58;;;;;;;3.47;3.27;;;14.80;1.00;;;;;;6282317;28;20706;-55
2022/09/03 06:33:01;;;;;;;3.70;3.00;;;14.90;1.00;;;;;;6280824;28;20472;-54
2022/09/03 06:36:06;;;;;;;5.13;3.43;;;15.20;1.00;;;;;;6279523;28;20386;-55
2022/09/03 06:39:12;;;;;;;3.20;3.07;;;15.30;1.00;;;;;;6277083;28;20340;-55
2022/09/03 06:42:15;;;;;;;3.40;3.30;;;15.40;1.00;;;;;;6279119;28;20599;-55
2022/09/03 06:45:18;;;;;;;3.33;3.07;;;15.50;1.00;;;;;;6279850;28;20235;-54
2022/09/03 06:48:21;;;;;;;3.83;3.20;;;15.60;1.00;;;;;;6282022;28;20264;-54
2022/09/03 06:51:25;;;;;;;3.20;2.90;;;15.60;1.00;;;;;;6281130;28;20241;-54
2022/09/03 06:54:31;;;;;;;2.93;2.73;;;15.60;1.00;;;;;;6279421;28;20282;-55
2022/09/03 06:57:34;;;;;;;3.27;3.03;;;15.80;1.00;;;;;;6281454;28;20382;-55
2022/09/03 07:00:37;;;;;;;3.00;2.90;;;15.80;1.00;;;;;;6277783;28;20495;-53
2022/09/03 07:03:42;;;;;;;2.67;2.60;;;15.90;1.00;;;;;;6280279;28;20501;-55
2022/09/03 07:06:45;;;;;;;2.90;2.67;;;16.10;1.00;;;;;;6285232;28;20241;-55
2022/09/03 07:09:49;;;;;;;3.10;2.63;;;16.10;1.00;;;;;;6285638;28;20244;-55
2022/09/03 07:12:55;;;;;;;2.70;2.60;;;16.10;1.00;;;;;;6290475;28;20255;-55
2022/09/03 07:16:00;;;;;;;2.77;2.50;;;16.10;1.00;;;;;;6288140;28;20648;-54
2022/09/03 07:19:03;;;;;;;6.70;3.10;;;16.20;1.00;;;;;;6285462;28;20232;-53
2022/09/03 07:22:06;;;;;;;2.97;2.70;;;16.30;1.00;;;;;;6285796;28;20283;-55
2022/09/03 07:25:11;;;;;;;7.70;2.93;;;16.20;1.00;;;;;;6281118;28;20230;-55
2022/09/03 07:28:15;;;;;;;2.70;2.60;;;16.20;1.00;;;;;;6289323;28;20736;-55
2022/09/03 07:31:24;;;;;;;2.60;2.60;;;16.20;1.00;;;;;;6296717;28;20410;-55
2022/09/03 07:34:29;;;;;;;6.40;2.97;;;16.20;1.00;;;;;;6281716;28;20257;-55
2022/09/03 07:37:32;;;;;;;2.87;2.50;;;16.20;1.00;;;;;;6278248;28;20513;-55
2022/09/03 07:40:38;;;;;;;2.93;2.63;;;16.40;1.00;;;;;;6284939;28;20394;-55
2022/09/03 07:43:45;;;;;;;3.13;2.90;;;16.50;1.00;;;;;;6282019;28;20287;-56
2022/09/03 07:46:49;;;;;;;3.90;2.90;;;16.60;1.00;;;;;;6284055;28;20781;-55
2022/09/03 07:49:53;;;;;;;3.03;2.83;;;16.60;1.00;;;;;;6282639;28;20241;-54
2022/09/03 07:53:01;;;;;;;4.93;2.80;;;16.70;1.00;;;;;;6283591;28;20324;-54
2022/09/03 07:56:07;;;;;;;2.73;2.63;;;16.90;1.00;;;;;;6287187;28;20723;-59
2022/09/03 07:59:11;;;;;;;3.13;2.50;;;17.10;1.00;;;;;;6284461;28;20771;-56
2022/09/03 08:02:14;;;;;;;2.80;2.60;;;17.30;1.00;;;;;;6279771;28;20258;-56
2022/09/03 08:05:20;;;;;;;4.83;2.90;;;17.40;1.00;;;;;;6279530;28;20835;-55
2022/09/03 08:08:24;;;;;;;2.97;2.70;;;17.60;1.00;;;;;;6285046;28;20672;-55
2022/09/03 08:11:37;;;;;;;2.50;2.40;;;17.90;1.00;;;;;;6277920;28;20388;-54
2022/09/03 08:14:40;;;;;;;3.23;2.93;;;18.00;1.00;;;;;;6284309;28;20232;-55
2022/09/03 08:17:46;;;;;;;3.23;2.83;;;18.00;1.00;;;;;;6285004;28;20232;-54
2022/09/03 08:20:48;;;;;;;2.60;2.50;;;18.00;1.00;;;;;;6282658;28;20252;-54
2022/09/03 08:23:53;;;;;;;2.70;2.50;;;18.20;1.00;;;;;;6280217;28;20374;-55
2022/09/03 08:27:02;;;;;;;2.73;2.57;;;18.20;1.00;;;;;;6283917;28;20850;-55
2022/09/03 08:30:10;;;;;;;2.73;2.63;;;18.40;1.00;;;;;;6281962;28;20341;-54
2022/09/03 08:33:13;;;;;;;2.90;2.90;;;18.50;1.00;;;;;;6283203;28;20240;-54
2022/09/03 08:36:18;;;;;;;2.40;2.33;;;18.50;1.00;;;;;;6276032;28;20237;-54
2022/09/03 08:39:20;;;;;;;2.73;2.53;;;18.50;1.00;;;;;;6273176;28;20332;-55
2022/09/03 08:42:52;;;;;;;3.00;2.80;;;18.50;1.00;;;;;;6281862;28;20396;-53
2022/09/03 08:45:58;;;;;;;4.23;2.60;;;18.50;1.00;;;;;;6278421;28;20225;-54
2022/09/03 08:49:02;;;;;;;2.57;2.43;;;18.50;1.00;;;;;;6281635;28;20228;-55
2022/09/03 08:52:16;;;;;;;2.80;2.60;;;18.50;1.00;;;;;;6263363;28;20320;-55
2022/09/03 08:55:26;;;;;;;2.77;2.57;;;18.50;1.00;;;;;;6284169;28;20241;-54
2022/09/03 08:58:37;;;;;;;2.67;2.57;;;18.60;1.00;;;;;;6284040;28;20318;-56
2022/09/03 09:01:49;;;;;;;2.67;2.50;;;18.60;1.00;;;;;;6282575;28;20252;-55
2022/09/03 09:05:03;;;;;;;2.70;2.50;;;18.60;1.00;;;;;;6273687;28;20226;-55
2022/09/03 09:08:18;;;;;;;2.23;2.13;;;18.70;1.00;;;;;;6282125;28;20380;-55
2022/09/03 09:11:30;;;;;;;2.70;2.60;;;18.80;1.00;;;;;;6282584;28;20240;-55
2022/09/03 09:14:41;;;;;;;2.70;2.50;;;18.90;1.00;;;;;;6282371;28;20332;-56
2022/09/03 09:18:00;;;;;;;2.40;2.30;;;19.00;1.00;;;;;;6287646;28;20611;-54
2022/09/03 09:21:11;;;;;;;5.50;2.40;;;19.10;1.00;;;;;;6280885;28;20325;-54
2022/09/03 09:24:25;;;;;;;3.93;2.30;;;19.30;1.00;;;;;;6277528;28;20252;-55
2022/09/03 09:27:28;;;;;;;2.17;2.17;;;19.40;1.00;;;;;;6281307;28;20691;-53
2022/09/03 09:30:33;;;;;;;2.47;2.23;;;19.50;1.00;;;;;;6282253;28;20261;-54
2022/09/03 09:33:36;;;;;;;2.10;2.00;;;19.60;1.00;;;;;;6279812;28;20606;-54
2022/09/03 09:36:45;;;;;;;2.83;2.40;;;19.60;1.00;;;;;;6282598;28;20237;-54
2022/09/03 09:40:01;;;;;;;2.20;2.10;;;19.70;1.00;;;;;;6282478;28;20345;-55
2022/09/03 09:43:06;;;;;;;3.10;2.33;;;19.80;1.00;;;;;;6276459;28;20256;-54
2022/09/03 09:46:13;;;;;;;2.50;2.40;;;20.00;1.00;;;;;;6282817;28;20259;-54
2022/09/03 09:49:30;;;;;;;3.13;2.33;;;20.10;1.00;;;;;;6281446;28;20413;-53
2022/09/03 09:52:33;;;;;;;3.73;2.60;;;20.20;1.00;;;;;;6279356;28;20408;-54
2022/09/03 09:55:37;;;;;;;2.50;2.30;;;20.30;1.00;;;;;;6285678;28;20513;-54
2022/09/03 09:58:40;;;;;;;2.77;2.33;;;20.50;1.00;;;;;;6284652;28;20309;-56
2022/09/03 10:01:45;;;;;;;2.17;2.17;;;20.60;1.00;;;;;;6282811;28;20721;-55
2022/09/03 10:04:48;;;;;;;2.43;2.20;;;20.50;1.00;;;;;;6280712;28;20303;-55
2022/09/03 10:07:57;;;;;;;3.40;2.10;;;20.60;1.00;;;;;;6280669;28;20233;-54
2022/09/03 10:11:00;;;;;;;2.10;2.00;;;20.60;1.00;;;;;;6274572;28;20745;-54
2022/09/03 10:14:06;;;;;;;2.23;2.03;;;20.70;1.00;;;;;;6273513;28;20817;-55
2022/09/03 10:17:17;;;;;;;2.67;2.47;;;20.90;1.00;;;;;;6281226;28;20313;-56
2022/09/03 10:20:32;;;;;;;4.93;1.97;;;20.90;1.00;;;;;;6281262;28;20237;-58
2022/09/03 10:23:49;;;;;;;1.80;1.80;;;20.90;1.00;;;;;;6277529;28;20351;-55
2022/09/03 10:26:51;;;;;;;2.37;2.07;;;21.00;1.00;;;;;;6283229;28;20379;-54
2022/09/03 10:29:54;;;;;;;2.27;2.17;;;21.20;1.00;;;;;;6278649;28;20402;-54
2022/09/03 10:33:07;;;;;;;3.07;2.00;;;21.30;1.00;;;;;;6279539;28;20324;-55
2022/09/03 10:36:17;;;;;;;4.73;2.20;;;21.40;1.00;;;;;;6280085;28;20240;-54
2022/09/03 10:39:25;;;;;;;2.20;2.10;;;21.40;1.00;;;;;;6274520;28;20411;-56
2022/09/03 10:42:44;;;;;;;2.03;1.93;;;21.30;1.00;;;;;;6275704;28;20267;-54
2022/09/03 10:46:01;;;;;;;3.37;1.80;;;21.10;1.00;;;;;;6281029;28;20332;-55
2022/09/03 10:49:33;;;;;;;2.20;2.10;;;21.00;1.00;;;;;;6278821;28;20226;-54
2022/09/03 10:52:48;;;;;;;2.77;1.90;;;20.90;1.00;;;;;;6281010;28;20287;-55
2022/09/03 10:56:00;;;;;;;2.50;2.40;;;21.10;1.00;;;;;;6282237;28;20222;-54
2022/09/03 10:59:27;;;;;;;4.03;2.30;;;21.30;1.00;;;;;;6278823;28;20239;-55
2022/09/03 11:02:58;;;;;;;2.30;2.07;;;21.30;1.00;;;;;;6276199;28;20621;-55
2022/09/03 11:06:08;;;;;;;2.90;2.70;;;21.40;1.00;;;;;;6266959;28;20229;-55
2022/09/03 11:09:17;;;;;;;2.60;2.50;;;21.60;1.00;;;;;;6280533;28;20458;-55
2022/09/03 11:12:26;;;;;;;3.10;2.60;;;21.70;1.00;;;;;;6281145;28;20247;-57
2022/09/03 11:15:34;;;;;;;2.60;2.40;;;21.90;1.00;;;;;;6278308;28;20242;-57
2022/09/03 11:18:44;;;;;;;2.60;2.10;;;22.00;1.00;;;;;;6280651;28;20785;-55
2022/09/03 11:21:50;;;;;;;2.00;2.00;;;22.10;1.00;;;;;;6275417;28;20612;-55
2022/09/03 11:24:58;;;;;;;1.80;1.70;;;22.10;1.00;;;;;;6279591;28;20312;-55
2022/09/03 11:28:17;;;;;;;2.07;1.93;;;22.10;1.00;;;;;;6280131;28;20236;-54
2022/09/03 11:31:30;;;;;;;1.73;1.73;;;22.10;1.00;;;;;;6280183;28;20237;-55
2022/09/03 11:34:47;;;;;;;1.90;1.90;;;22.20;1.00;;;;;;6274433;28;20241;-55
2022/09/03 11:37:54;;;;;;;2.10;2.00;;;22.10;1.00;;;;;;6277721;28;20237;-55
2022/09/03 11:41:01;;;;;;;1.80;1.80;;;22.20;1.00;;;;;;6280019;28;20731;-58
2022/09/03 11:44:18;;;;;;;2.40;2.20;;;22.20;1.00;;;;;;6280087;28;20229;-61
2022/09/03 11:47:23;;;;;;;2.07;1.97;;;22.20;1.00;;;;;;6258652;28;20620;-55
2022/09/03 11:50:28;;;;;;;2.27;2.17;;;22.20;1.00;;;;;;6281105;28;20237;-53
2022/09/03 11:53:36;;;;;;;3.60;2.10;;;22.30;1.00;;;;;;6279102;28;20233;-55
2022/09/03 11:56:42;;;;;;;2.40;2.30;;;22.40;1.00;;;;;;6276953;28;20234;-55
2022/09/03 11:59:45;;;;;;;2.33;2.13;;;22.40;1.00;;;;;;6281629;28;20241;-56
2022/09/03 12:02:50;;;;;;;2.10;2.10;;;22.20;1.00;;;;;;6283991;28;20721;-54
2022/09/03 12:06:18;;;;;;;2.47;1.97;;;22.20;1.00;;;;;;6282509;28;20441;-54
2022/09/03 12:09:52;;;;;;;4.13;2.20;;;22.20;1.00;;;;;;6280959;28;20488;-55
2022/09/03 12:13:12;;;;;;;3.37;2.07;;;22.10;1.00;;;;;;6281425;28;20241;-59
2022/09/03 12:16:41;;;;;;;2.53;2.27;;;22.20;1.00;;;;;;6283016;28;20248;-54
2022/09/03 12:19:50;;;;;;;2.10;2.00;;;22.30;1.00;;;;;;6283088;28;20321;-54
2022/09/03 12:22:54;;;;;;;1.83;1.83;;;22.20;1.00;;;;;;6276021;28;20244;-55
2022/09/03 12:26:02;;;;;;;2.20;1.80;;;22.20;1.00;;;;;;6279776;28;21642;-55
2022/09/03 12:29:06;;;;;;;1.87;1.80;;;22.20;1.00;;;;;;6278507;28;20233;-56
2022/09/03 12:32:14;;;;;;;7.00;1.93;;;22.30;1.00;;;;;;6281123;28;20332;-54
2022/09/03 12:35:19;;;;;;;2.00;1.80;;;22.20;1.00;;;;;;6282593;28;20233;-55
2022/09/03 12:38:42;;;;;;;3.90;2.47;;;22.20;1.00;;;;;;6272556;28;20377;-55
2022/09/03 12:42:13;;;;;;;3.20;1.90;;;22.30;1.00;;;;;;6277517;28;20469;-55
2022/09/03 12:45:20;;;;;;;1.90;1.80;;;22.40;1.00;;;;;;6283136;28;20672;-55
2022/09/03 12:48:24;;;;;;;1.97;1.97;;;22.60;1.00;;;;;;6276020;28;20311;-55
2022/09/03 12:51:41;;;;;;;3.43;2.07;;;22.80;1.00;;;;;;6283421;28;20237;-54
2022/09/03 12:55:04;;;;;;;2.23;1.93;;;23.00;1.00;;;;;;6255149;28;20235;-54
2022/09/03 12:58:13;;;;;;;6.13;2.00;;;23.20;1.00;;;;;;6283501;28;20758;-55
2022/09/03 13:01:21;;;;;;;1.90;1.90;;;23.20;1.00;;;;;;6281913;28;20250;-54
2022/09/03 13:04:27;;;;;;;2.03;1.80;;;23.30;1.00;;;;;;6281723;28;20298;-54
2022/09/03 13:07:36;;;;;;;4.53;2.00;;;23.30;1.00;;;;;;6283765;28;20672;-53
2022/09/03 13:10:42;;;;;;;2.40;2.20;;;23.30;1.00;;;;;;6281529;28;20661;-52
2022/09/03 13:13:55;;;;;;;3.17;1.83;;;23.20;1.00;;;;;;6279699;28;20352;-56
2022/09/03 13:17:23;;;;;;;1.90;1.90;;;23.00;1.00;;;;;;6277578;28;20350;-54
2022/09/03 13:20:37;;;;;;;2.20;1.93;;;23.00;1.00;;;;;;6272616;28;20722;-54
2022/09/03 13:23:55;;;;;;;2.20;2.13;;;23.00;1.00;;;;;;6281528;28;20595;-55
2022/09/03 13:27:11;;;;;;;4.53;2.23;;;22.90;1.00;;;;;;6281853;28;20225;-54
2022/09/03 13:30:19;;;;;;;2.13;2.10;;;22.80;1.00;;;;;;6280108;28;20253;-55
2022/09/03 13:33:28;;;;;;;2.10;2.00;;;22.70;1.00;;;;;;6285900;28;20506;-54
2022/09/03 13:36:38;;;;;;;2.00;2.00;;;22.50;1.00;;;;;;6283117;28;20644;-55
2022/09/03 13:39:51;;;;;;;2.10;2.00;;;22.20;1.00;;;;;;6280949;28;20297;-56
2022/09/03 13:43:01;;;;;;;2.30;2.10;;;22.20;1.00;;;;;;6278472;28;20988;-54
2022/09/03 13:46:10;;;;;;;4.03;2.20;;;22.30;1.00;;;;;;6277881;28;20714;-54
2022/09/03 13:52:55;;;;;;;4.50;1.93;;;22.60;1.00;;;;;;6278075;28;20229;-55
2022/09/03 13:56:05;;;;;;;2.43;2.00;;;22.90;1.00;;;;;;6277626;28;20308;-53
2022/09/03 13:59:15;;;;;;;1.90;1.83;;;23.20;1.00;;;;;;6287722;28;20236;-55
2022/09/03 14:02:26;;;;;;;1.90;1.90;;;23.40;1.00;;;;;;6281015;28;20237;-55
2022/09/03 14:06:01;;;;;;;2.30;2.20;;;23.30;1.00;;;;;;6285926;28;20261;-54
2022/09/03 14:09:14;;;;;;;2.37;2.13;;;23.00;1.00;;;;;;6278483;28;20221;-53
2022/09/03 14:12:25;;;;;;;2.37;2.27;;;22.90;1.00;;;;;;6274343;28;20314;-53
2022/09/03 14:15:31;;;;;;;2.93;2.10;;;22.90;1.00;;;;;;6276639;28;20643;-55
2022/09/03 14:18:59;;;;;;;2.20;2.20;;;22.80;1.00;;;;;;6278085;28;20322;-54
2022/09/03 14:22:11;;;;;;;2.27;2.20;;;22.70;1.00;;;;;;6274160;28;20328;-55
2022/09/03 14:25:17;;;;;;;2.30;2.10;;;22.80;1.00;;;;;;6276952;28;20237;-55
2022/09/03 14:28:29;;;;;;;3.80;2.07;;;22.80;1.00;;;;;;6280152;28;20716;-55
2022/09/03 14:32:07;;;;;;;2.43;2.30;;;22.80;1.00;;;;;;6268208;28;20252;-57
2022/09/03 14:35:45;;;;;;;2.97;2.30;;;22.60;1.00;;;;;;6272065;28;20324;-53
2022/09/03 14:39:03;;;;;;;3.03;1.93;;;22.40;1.00;;;;;;6258556;28;20394;-55
2022/09/03 14:42:36;;;;;;;2.20;2.00;;;22.30;1.00;;;;;;6274865;28;20788;-57
2022/09/03 14:46:09;;;;;;;2.20;2.07;;;22.40;1.00;;;;;;6272872;28;20817;-58
2022/09/03 14:49:43;;;;;;;2.30;2.20;;;22.60;1.00;;;;;;6278900;28;20587;-55
2022/09/03 14:53:23;;;;;;;4.83;2.67;;;22.80;1.00;;;;;;6278557;28;20235;-54
2022/09/03 14:56:39;;;;;;;1.70;1.70;;;23.10;1.00;;;;;;6265708;28;20260;-55
2022/09/03 15:00:04;;;;;;;2.27;2.17;;;23.10;1.00;;;;;;6277253;28;20238;-54
2022/09/03 15:03:52;;;;;;;2.40;2.07;;;23.10;1.00;;;;;;6280489;28;20437;-55
2022/09/03 15:07:15;;;;;;;2.40;2.20;;;23.00;1.00;;;;;;6280333;28;20232;-55
2022/09/03 15:10:27;;;;;;;5.03;2.30;;;22.80;1.00;;;;;;6273689;28;20532;-55
2022/09/03 15:13:42;;;;;;;2.20;2.10;;;22.80;1.00;;;;;;6276207;28;20410;-55
2022/09/03 15:16:57;;;;;;;2.20;2.10;;;22.70;1.00;;;;;;6275430;28;20249;-55
2022/09/03 15:20:18;;;;;;;2.20;2.17;;;22.60;1.00;;;;;;6279114;28;20323;-54
2022/09/03 15:23:43;;;;;;;2.67;2.50;;;22.70;1.00;;;;;;6270949;28;20278;-54
2022/09/03 15:27:04;;;;;;;2.50;2.40;;;23.00;1.00;;;;;;6278985;28;20263;-55
2022/09/03 15:30:11;;;;;;;4.60;2.33;;;23.20;1.00;;;;;;6285606;28;20679;-54
2022/09/03 15:33:29;;;;;;;2.40;2.20;;;23.30;1.00;;;;;;6294912;28;20484;-54
2022/09/03 15:36:39;;;;;;;2.60;2.50;;;23.50;1.00;;;;;;6278308;28;20260;-55
2022/09/03 15:39:45;;;;;;;2.43;2.33;;;23.50;1.00;;;;;;6279229;28;20234;-55
2022/09/03 15:42:55;;;;;;;2.00;1.90;;;23.30;1.00;;;;;;6285670;28;20903;-54
2022/09/03 15:46:09;;;;;;;2.47;2.20;;;23.20;1.00;;;;;;6280515;28;20324;-55
2022/09/03 15:49:23;;;;;;;2.17;2.07;;;22.90;1.00;;;;;;6282991;28;20233;-55
2022/09/03 15:52:32;;;;;;;2.30;2.20;;;22.70;1.00;;;;;;6285340;28;20825;-55
2022/09/03 15:55:37;;;;;;;5.03;2.30;;;22.70;1.00;;;;;;6259161;28;20325;-53
2022/09/03 15:58:47;;;;;;;3.90;2.23;;;22.60;1.00;;;;;;6284194;28;20737;-54
2022/09/03 16:01:57;;;;;;;2.57;2.47;;;22.50;1.00;;;;;;6285506;28;20299;-54
2022/09/03 16:05:15;;;;;;;2.50;2.30;;;22.40;1.00;;;;;;6278768;28;20230;-59
2022/09/03 16:08:24;;;;;;;2.30;2.30;;;22.30;1.00;;;;;;6283989;28;20644;-55
2022/09/03 16:11:36;;;;;;;2.20;2.20;;;22.30;1.00;;;;;;6285538;28;20244;-55
2022/09/03 16:14:43;;;;;;;3.37;2.70;;;22.30;1.00;;;;;;6277684;28;21160;-54
2022/09/03 16:17:58;;;;;;;2.43;2.20;;;22.30;1.00;;;;;;6285489;28;20229;-56
2022/09/03 16:21:04;;;;;;;2.70;2.60;;;22.20;1.00;;;;;;6281416;28;20590;-53
2022/09/03 16:24:17;;;;;;;2.80;2.70;;;22.10;1.00;;;;;;6286140;28;20259;-55
2022/09/03 16:27:23;;;;;;;2.20;2.20;;;21.90;1.00;;;;;;6289027;28;20320;-55
2022/09/03 16:30:37;;;;;;;4.30;2.70;;;21.80;1.00;;;;;;6290621;28;20487;-53
2022/09/03 16:33:50;;;;;;;2.60;2.43;;;21.70;1.00;;;;;;6273221;28;20271;-56
2022/09/03 16:37:03;;;;;;;3.00;2.90;;;21.60;1.00;;;;;;6277700;28;20317;-55
2022/09/03 16:40:15;;;;;;;2.30;2.30;;;21.40;1.00;;;;;;6281193;28;20320;-55
2022/09/03 16:43:29;;;;;;;2.90;2.70;;;21.30;1.00;;;;;;6283404;28;20244;-55
2022/09/03 16:46:53;;;;;;;3.17;3.07;;;21.20;1.00;;;;;;6282341;28;20371;-55
2022/09/03 16:50:13;;;;;;;3.10;2.80;;;21.20;1.00;;;;;;6282798;28;20939;-54